Accueil
METAR-TAF:

METAR-TAF

Aéroports :

Skyhaven Airport

Rochester, New Hampshire, États-Unis

latitude: 43-16-41N, longitude: 070-55-20W, altitude: 98 m

Observation

Le bulletin a été fait il y a 34 minutes, à 11:51 UTC
Vent 7 kt de ouest/nord-ouest
Température 3°C
Humidité 48%
Pression 1021 hPa
Visibilité: 16.1 km
Ciel clair

METAR: KDAW 281151Z AUTO 30007KT 10SM CLR 03/M07 A3014 RMK AO2 PRESRR SLP206 T00281067 10033 21028 53015

Heure: 08:25 (12:25 UTC)


TAF: absent

Observations et prévisions météorologiques de plus de 4000 aéroports (messages METAR et TAF).

Les stations disponibles sont représentées par des disques jaunes et rouges sur la carte.

Passer la souris dessus pour voir le nom de la station.

Cliquer dessus pour voir les observations et prévisions météorologiques.

Pour changer de carte: cliquez sur les boutons verts avec une croix noire pour zoomer, sur le bouton vert avec un tiret pour effectuer un zoom arrière, ou sur les flèches vertes pour les cartes adjacentes.


METAR-TAF: